Flight Track Log - Related Links

Times and Time Zones

All times are in EDT time to prevent confusion due to time zone crossing. See the GLR9643 flight status page for this flight to view local times or setup timezone preferences in your user account.

Time Position Orientation Groundspeed Altitude Reporting Facility
EDT Latitude Longitude Course Direction KTS MPH feet Rate Location/Type
Thu 06:18:47 PM 53.2667 -113.6333 197° South 140 161 4,100  Level Edmonton Center
Thu 06:19:47 PM 53.2333 -113.6833 222° Southwest 150 173 5,500 1,200 Climbing Edmonton Center
Thu 06:20:47 PM 53.1833 -113.6667 169° South 160 184 6,500 1,150 Climbing Edmonton Center
Thu 06:21:47 PM 53.1333 -113.6333 158° South 180 207 7,800 1,250 Climbing Edmonton Center
Thu 06:22:47 PM 53.0833 -113.6500 191° South 180 207 9,000 1,200 Climbing Edmonton Center
Thu 06:23:00 PM 53.0259 -113.8030 169° South  Level FlightAware Approximate
Thu 06:23:47 PM 53.0333 -113.6500 180° South 190 219 10,200  Level Edmonton Center
Thu 06:24:47 PM 52.9833 -113.6333 169° South 200 230 11,400 1,350 Climbing Edmonton Center
Thu 06:25:47 PM 52.9167 -113.5833 156° South 200 230 12,900 1,250 Climbing Edmonton Center
Thu 06:26:47 PM 52.8667 -113.5833 180° South 200 230 13,900 1,050 Climbing Edmonton Center
Thu 06:27:47 PM 52.8000 -113.5667 171° South 210 242 15,000 1,100 Climbing Edmonton Center
Thu 06:28:47 PM 52.7500 -113.5333 158° South 200 230 16,100 850 Climbing Edmonton Center
Thu 06:29:47 PM 52.7167 -113.4833 138° Southeast 210 242 16,700 450 Climbing Edmonton Center
Thu 06:30:47 PM 52.6333 -113.5000 187° South 210 242 17,000 150 Climbing Edmonton Center
Thu 06:31:47 PM 52.5667 -113.5167 189° South 240 276 17,000  Level Edmonton Center
Thu 06:32:47 PM 52.5000 -113.5000 171° South 250 288 17,000  Level Edmonton Center
Thu 06:33:47 PM 52.4333 -113.5167 189° South 250 288 17,000 50 Level Edmonton Center
Thu 06:34:47 PM 52.3667 -113.5333 189° South 250 288 17,100 50 Climbing Edmonton Center
Thu 06:35:47 PM 52.3000 -113.5500 189° South 250 288 17,100  Level Edmonton Center
Thu 06:36:47 PM 52.2333 -113.5500 180° South 250 288 17,100 -300 Level Edmonton Center
Thu 06:37:47 PM 52.1667 -113.5667 189° South 250 288 16,500 -600 Descending Edmonton Center
Thu 06:38:47 PM 52.0833 -113.5833 187° South 240 276 15,900 -650 Descending Edmonton Center
Thu 06:39:47 PM 52.0167 -113.5667 171° South 240 276 15,200 -700 Descending Edmonton Center
Thu 06:40:47 PM 51.9500 -113.5833 189° South 230 265 14,500 -550 Descending Edmonton Center
Thu 06:41:47 PM 51.9000 -113.6000 192° South 230 265 14,100 -200 Descending Edmonton Center
Thu 06:42:47 PM 51.8333 -113.6167 189° South 220 253 14,100 -50 Level Edmonton Center
Thu 06:43:47 PM 51.7833 -113.6333 192° South 220 253 14,000 -650 Descending Edmonton Center
Thu 06:44:47 PM 51.7167 -113.6500 189° South 230 265 12,800 -1,350 Descending Edmonton Center
Thu 06:45:47 PM 51.6333 -113.6833 194° South 250 288 11,300 -1,100 Descending Edmonton Center
Thu 06:46:47 PM 51.5833 -113.7333 212° Southwest 230 265 10,600 -850 Descending Edmonton Center
Thu 06:47:47 PM 51.5333 -113.7667 203° Southwest 220 253 9,600 -1,050 Descending Edmonton Center
Thu 06:48:47 PM 51.4667 -113.8500 218° Southwest 200 230 8,500 -1,050 Descending Edmonton Center
Thu 06:49:47 PM 51.4333 -113.8833 212° Southwest 200 230 7,500 -1,000 Descending Edmonton Center
Thu 06:50:47 PM 51.4167 -113.9667 252° West 190 219 6,500 -500 Descending Edmonton Center
Thu 06:51:47 PM 51.3667 -114.0167 212° Southwest 190 219 6,500  Level Edmonton Center
Thu 06:52:47 PM 51.3167 -114.0333 192° South 170 196 6,500  Level Edmonton Center
Thu 06:53:47 PM 51.2667 -114.0500 192° South 170 196 6,500 -300 Level Edmonton Center
Thu 06:54:47 PM 51.2167 -114.0333 168° South 160 184 5,900 -750 Descending Edmonton Center
Thu 06:55:47 PM 51.1833 -114.0500 197° South 160 184 5,000 -800 Descending Edmonton Center
Thu 06:56:47 PM 51.1333 -114.0500 180° South 140 161 4,300 -700 Descending Edmonton Center

Login

Don't have an account? Register now (free) for customized features, flight alerts, and more!